Time;durP1;ratioP1;P1;durP2;ratioP2;P2;SDS_P1;SDS_P2;PMS_P1;PMS_P2;Temp;Humidity;BMP_temperature;BMP_pressure;BME280_temperature;BME280_humidity;BME280_pressure;Samples;Min_cycle;Max_cycle;Signal;HPM_P1;HPM_P2
2022/05/30 00:00:31;;;;;;;9.43;2.45;;;;;;;8.89;82.27;101311.13;4945724;29;20055;-84
2022/05/30 00:02:56;;;;;;;5.60;1.90;;;;;;;8.92;83.44;101306.53;4946336;29;20114;-84
2022/05/30 00:05:23;;;;;;;9.02;2.00;;;;;;;8.90;83.76;101312.81;4932003;29;20409;-84
2022/05/30 00:07:50;;;;;;;6.97;1.90;;;;;;;8.88;83.77;101298.94;4929692;29;20078;-84
2022/05/30 00:10:16;;;;;;;11.77;2.45;;;;;;;8.83;83.00;101303.63;4941333;28;20146;-84
2022/05/30 00:12:43;;;;;;;7.80;2.10;;;;;;;8.78;83.13;101296.00;4946218;29;20042;-83
2022/05/30 00:15:12;;;;;;;8.00;2.30;;;;;;;8.69;83.76;101304.41;4937791;28;20032;-84
2022/05/30 00:17:37;;;;;;;7.82;2.50;;;;;;;8.64;83.17;101298.59;4950603;28;20044;-84
2022/05/30 00:20:04;;;;;;;7.30;1.85;;;;;;;8.66;82.81;101300.19;4948530;29;20405;-84
2022/05/30 00:22:30;;;;;;;8.90;2.50;;;;;;;8.70;83.82;101299.09;4934888;29;20082;-84
2022/05/30 00:24:55;;;;;;;6.53;2.17;;;;;;;8.67;83.93;101296.63;4936358;29;20023;-84
2022/05/30 00:27:21;;;;;;;10.40;2.30;;;;;;;8.65;83.98;101298.50;4953685;29;20035;-84
2022/05/30 00:29:46;;;;;;;9.43;2.50;;;;;;;8.60;83.98;101294.47;4934899;29;20477;-84
2022/05/30 00:32:11;;;;;;;9.02;2.50;;;;;;;8.60;83.18;101292.69;4951548;28;20045;-84
2022/05/30 00:34:37;;;;;;;6.78;2.33;;;;;;;8.62;84.31;101293.44;4935190;29;20053;-84
2022/05/30 00:37:03;;;;;;;7.63;2.42;;;;;;;8.65;84.10;101293.25;4929239;29;20110;-84
2022/05/30 00:39:29;;;;;;;7.45;2.58;;;;;;;8.64;83.92;101291.56;4927945;29;20122;-85
2022/05/30 00:42:17;;;;;;;11.70;2.35;;;;;;;8.62;83.31;101285.56;4951769;29;20276;-84
2022/05/30 00:44:44;;;;;;;9.02;2.35;;;;;;;8.58;84.09;101284.06;4951931;29;20540;-84
2022/05/30 00:47:10;;;;;;;10.20;2.50;;;;;;;8.58;84.32;101289.31;4940405;29;20031;-84
2022/05/30 00:49:38;;;;;;;8.65;2.70;;;;;;;8.58;85.29;101285.84;4944492;28;20122;-84
2022/05/30 00:52:07;;;;;;;8.50;2.40;;;;;;;8.57;84.95;101284.16;4943718;29;20094;-85
2022/05/30 00:54:55;;;;;;;7.70;2.50;;;;;;;8.68;84.71;101290.47;4922013;29;20495;-84
2022/05/30 00:57:23;;;;;;;10.20;2.33;;;;;;;8.60;85.06;101290.06;4920924;29;20397;-84
2022/05/30 01:00:01;;;;;;;12.27;2.65;;;;;;;8.64;85.14;101280.25;4943873;28;20348;-84
2022/05/30 01:02:34;;;;;;;9.32;2.47;;;;;;;8.68;85.56;101285.22;4935232;29;20031;-84
2022/05/30 01:07:46;;;;;;;8.05;2.40;;;;;;;8.63;85.50;101282.03;4943352;28;20071;-85
2022/05/30 01:10:16;;;;;;;8.82;2.63;;;;;;;8.66;85.43;101284.47;4953590;28;20114;-85
2022/05/30 01:12:49;;;;;;;17.95;2.88;;;;;;;8.60;85.41;101279.56;4935782;29;20030;-85
2022/05/30 01:15:16;;;;;;;11.30;2.67;;;;;;;8.60;85.41;101274.34;4949790;29;20032;-85
2022/05/30 01:17:51;;;;;;;8.77;2.92;;;;;;;8.59;85.83;101283.13;4927459;29;20038;-85
2022/05/30 01:20:36;;;;;;;10.32;3.00;;;;;;;8.58;85.72;101280.59;4944004;29;20034;-85
2022/05/30 01:23:20;;;;;;;8.40;2.50;;;;;;;8.58;85.58;101276.22;4949836;28;20704;-85
2022/05/30 01:25:51;;;;;;;10.93;3.30;;;;;;;8.50;86.31;101278.44;4932689;29;20031;-85
2022/05/30 01:28:59;;;;;;;15.37;3.37;;;;;;;8.55;85.62;101286.03;4934839;29;20449;-85
2022/05/30 01:31:25;;;;;;;9.85;2.83;;;;;;;8.52;85.35;101271.31;4930015;29;20332;-85
2022/05/30 01:33:51;;;;;;;11.13;3.10;;;;;;;8.46;86.00;101271.69;4932698;29;20119;-84
2022/05/30 01:36:21;;;;;;;8.50;2.90;;;;;;;8.47;85.81;101276.00;4934632;29;20434;-85
2022/05/30 01:38:46;;;;;;;8.50;3.20;;;;;;;8.53;86.46;101273.00;4932890;29;20031;-84
2022/05/30 01:41:11;;;;;;;9.65;3.22;;;;;;;8.48;85.88;101267.19;4949974;28;20070;-84
2022/05/30 01:43:36;;;;;;;11.57;3.17;;;;;;;8.46;86.39;101263.81;4942152;29;20073;-85
2022/05/30 01:46:18;;;;;;;15.25;3.80;;;;;;;8.42;85.98;101254.44;4946924;29;20054;-85
2022/05/30 01:48:45;;;;;;;11.57;3.22;;;;;;;8.39;87.03;101257.22;4949738;29;20039;-84
2022/05/30 01:51:11;;;;;;;12.65;3.17;;;;;;;8.39;86.76;101260.69;4950441;29;20023;-85
2022/05/30 01:53:37;;;;;;;12.73;3.25;;;;;;;8.39;87.29;101259.84;4942157;29;20082;-84
2022/05/30 01:56:02;;;;;;;9.68;3.33;;;;;;;8.42;87.34;101259.69;4947924;29;20389;-85
2022/05/30 01:58:27;;;;;;;10.40;3.20;;;;;;;8.44;87.74;101257.81;4946057;28;20031;-85
2022/05/30 02:00:53;;;;;;;12.80;3.58;;;;;;;8.40;87.14;101259.75;4922377;29;20701;-84
2022/05/30 02:03:18;;;;;;;13.13;4.10;;;;;;;8.38;87.22;101248.50;4944538;29;20034;-85
2022/05/30 02:05:43;;;;;;;10.63;3.85;;;;;;;8.40;87.38;101256.28;4948874;29;20473;-84
2022/05/30 02:08:09;;;;;;;10.00;3.42;;;;;;;8.39;87.82;101259.84;4948881;28;20049;-85
2022/05/30 02:10:36;;;;;;;11.60;3.55;;;;;;;8.38;87.71;101253.75;4926391;29;20027;-85
2022/05/30 02:13:02;;;;;;;9.88;3.50;;;;;;;8.41;87.76;101258.00;4949907;29;20472;-85
2022/05/30 02:17:00;;;;;;;10.60;3.72;;;;;;;8.37;88.01;101252.06;4933713;29;20027;-85
2022/05/30 02:18:16;;;;;;;10.85;4.10;;;;;;;8.32;88.22;101243.59;4945337;28;20048;-85
2022/05/30 02:20:45;;;;;;;12.73;4.30;;;;;;;8.36;88.76;101255.63;4928978;29;20034;-85
2022/05/30 02:23:10;;;;;;;10.05;4.20;;;;;;;8.38;89.10;101252.91;4948193;29;20121;-85
2022/05/30 02:25:36;;;;;;;10.55;4.45;;;;;;;8.41;88.72;101247.50;4946369;28;20063;-85
2022/05/30 02:28:01;;;;;;;12.02;4.75;;;;;;;8.42;88.38;101259.69;4940450;29;20125;-85
2022/05/30 02:30:26;;;;;;;12.60;4.93;;;;;;;8.37;88.69;101254.69;4950652;29;20027;-85
2022/05/30 02:36:38;;;;;;;11.45;4.88;;;;;;;8.37;89.47;101248.59;4949404;29;20071;-85
2022/05/30 02:38:21;;;;;;;10.77;5.07;;;;;;;8.33;89.28;101244.44;4943179;29;20422;-85
2022/05/30 02:40:46;;;;;;;13.93;5.63;;;;;;;8.24;89.62;101240.56;4940630;28;20035;-85
2022/05/30 02:43:11;;;;;;;11.27;5.63;;;;;;;8.26;89.81;101237.88;4942355;29;20035;-85
2022/05/30 02:45:36;;;;;;;14.07;5.75;;;;;;;8.20;90.05;101233.81;4945474;29;20051;-84
2022/05/30 02:48:03;;;;;;;15.73;5.65;;;;;;;8.17;89.72;101242.72;4947835;29;20038;-85
2022/05/30 02:50:31;;;;;;;12.18;5.90;;;;;;;8.15;90.05;101241.97;4926139;29;20569;-84
2022/05/30 02:52:57;;;;;;;9.93;5.38;;;;;;;8.14;90.18;101240.28;4950851;29;20035;-84
2022/05/30 02:55:22;;;;;;;11.07;5.70;;;;;;;8.14;90.45;101237.66;4942465;29;20058;-84
2022/05/30 02:57:49;;;;;;;12.00;6.10;;;;;;;8.13;90.61;101246.44;4950302;29;20046;-84
2022/05/30 03:00:15;;;;;;;16.40;6.53;;;;;;;8.13;90.21;101243.81;4947892;28;20106;-84
2022/05/30 03:02:40;;;;;;;10.48;5.72;;;;;;;8.05;90.15;101246.03;4943315;29;20031;-84
2022/05/30 03:05:06;;;;;;;12.40;5.80;;;;;;;8.04;90.61;101238.28;4950476;29;20027;-85
2022/05/30 03:07:31;;;;;;;17.98;6.28;;;;;;;7.96;90.60;101236.06;4948162;28;20051;-84
2022/05/30 03:09:56;;;;;;;14.27;6.28;;;;;;;7.99;91.41;101245.53;4934250;28;20127;-84
2022/05/30 03:12:22;;;;;;;12.90;6.15;;;;;;;7.99;91.21;101246.38;4939410;29;20043;-84
2022/05/30 03:14:49;;;;;;;13.20;5.95;;;;;;;7.98;90.59;101249.06;4943574;29;20028;-84
2022/05/30 03:17:14;;;;;;;15.23;6.60;;;;;;;7.91;90.52;101248.59;4942151;28;20031;-84
2022/05/30 03:19:39;;;;;;;15.63;6.45;;;;;;;7.97;91.23;101252.63;4942404;29;20046;-84
2022/05/30 03:22:05;;;;;;;13.05;6.25;;;;;;;7.93;91.04;101241.47;4950135;28;20035;-85
2022/05/30 03:24:30;;;;;;;10.00;5.97;;;;;;;7.92;90.70;101250.28;4948293;28;21403;-85
2022/05/30 03:26:55;;;;;;;13.38;6.75;;;;;;;7.91;91.29;101255.59;4931046;29;20031;-84
2022/05/30 03:29:21;;;;;;;15.30;6.32;;;;;;;7.92;90.89;101260.75;4953425;29;20034;-84
2022/05/30 03:31:46;;;;;;;15.05;6.25;;;;;;;7.87;90.94;101262.78;4951177;29;20035;-84
2022/05/30 03:34:11;;;;;;;15.82;7.50;;;;;;;7.82;90.51;101255.19;4946650;29;20042;-84
2022/05/30 03:36:38;;;;;;;15.05;6.80;;;;;;;7.86;90.56;101255.88;4952329;29;20039;-84
2022/05/30 03:39:03;;;;;;;16.60;6.88;;;;;;;7.79;91.04;101259.75;4953124;29;20116;-84
2022/05/30 03:41:31;;;;;;;17.63;7.07;;;;;;;7.75;91.43;101268.72;4927513;29;20170;-84
2022/05/30 03:44:00;;;;;;;18.13;8.05;;;;;;;7.69;92.01;101266.44;4947777;29;20035;-84
2022/05/30 03:46:30;;;;;;;19.52;7.45;;;;;;;7.72;91.66;101274.13;4945688;29;20040;-84
2022/05/30 03:48:55;;;;;;;14.45;6.93;;;;;;;7.75;91.84;101271.34;4936686;29;20506;-84
2022/05/30 03:51:20;;;;;;;16.08;7.55;;;;;;;7.70;92.00;101268.97;4953661;29;20031;-84
2022/05/30 03:53:46;;;;;;;16.02;7.00;;;;;;;7.75;92.12;101273.97;4937883;29;20039;-84
2022/05/30 03:56:11;;;;;;;16.55;7.40;;;;;;;7.74;91.81;101270.50;4937081;29;20028;-84
2022/05/30 03:58:37;;;;;;;19.77;7.68;;;;;;;7.75;92.24;101274.81;4943290;28;20517;-85
2022/05/30 04:01:07;;;;;;;18.63;7.93;;;;;;;7.75;91.92;101279.19;4935572;29;20038;-84
2022/05/30 04:03:34;;;;;;;16.40;7.50;;;;;;;7.74;91.56;101272.28;4950635;28;20035;-84
2022/05/30 04:05:59;;;;;;;17.73;7.40;;;;;;;7.75;91.43;101269.56;4928073;29;20050;-84
2022/05/30 04:08:25;;;;;;;22.15;7.85;;;;;;;7.77;91.66;101266.84;4952298;29;20564;-85
2022/05/30 04:10:50;;;;;;;17.30;7.70;;;;;;;7.79;91.98;101265.00;4944805;28;20122;-85
2022/05/30 04:13:16;;;;;;;20.70;8.38;;;;;;;7.80;91.92;101266.69;4953144;29;20035;-84
2022/05/30 04:15:41;;;;;;;14.68;7.47;;;;;;;7.81;92.20;101263.97;4951316;28;20023;-84
2022/05/30 04:18:07;;;;;;;21.92;8.30;;;;;;;7.82;91.81;101264.81;4946959;28;20039;-85
2022/05/30 04:20:32;;;;;;;14.10;7.13;;;;;;;7.88;91.70;101256.63;4949622;29;20038;-84
2022/05/30 04:22:58;;;;;;;14.88;7.18;;;;;;;7.91;91.44;101258.22;4951997;29;20038;-84
2022/05/30 04:25:23;;;;;;;13.63;7.55;;;;;;;7.89;91.77;101253.06;4953529;29;20055;-84
2022/05/30 04:27:49;;;;;;;16.27;7.78;;;;;;;7.88;91.45;101259.25;4931531;29;20043;-85
2022/05/30 04:30:14;;;;;;;15.48;8.07;;;;;;;7.86;91.45;101266.34;4930783;29;20397;-84
2022/05/30 04:32:40;;;;;;;15.52;7.90;;;;;;;7.84;91.28;101262.97;4929288;29;20640;-84
2022/05/30 04:35:08;;;;;;;19.88;8.38;;;;;;;7.78;91.57;101273.78;4944400;28;20058;-84
2022/05/30 04:37:33;;;;;;;16.50;8.00;;;;;;;7.74;91.91;101267.88;4951375;29;20023;-85
2022/05/30 04:39:58;;;;;;;14.20;7.80;;;;;;;7.75;91.94;101273.97;4935784;29;20394;-84
2022/05/30 04:42:24;;;;;;;17.05;8.50;;;;;;;7.73;91.79;101270.59;4927384;29;20035;-84
2022/05/30 04:44:49;;;;;;;16.52;7.72;;;;;;;7.70;91.56;101270.75;4934359;29;20027;-85
2022/05/30 04:47:14;;;;;;;17.15;8.02;;;;;;;7.75;91.05;101272.19;4939853;29;20198;-85
2022/05/30 04:49:41;;;;;;;19.75;8.20;;;;;;;7.74;91.18;101282.75;4945735;28;20094;-84
2022/05/30 04:52:07;;;;;;;17.80;8.38;;;;;;;7.71;91.50;101277.69;4932516;29;20726;-84
2022/05/30 04:54:33;;;;;;;17.60;8.38;;;;;;;7.77;91.83;101279.94;4947522;29;20042;-85
2022/05/30 04:56:59;;;;;;;17.75;8.48;;;;;;;7.81;91.65;101273.63;4944802;29;20118;-85
2022/05/30 04:59:25;;;;;;;18.83;8.55;;;;;;;7.75;91.66;101280.03;4935404;29;20387;-85
2022/05/30 05:01:50;;;;;;;22.65;9.20;;;;;;;7.82;92.17;101280.53;4941675;29;20035;-84
2022/05/30 05:04:15;;;;;;;16.60;8.45;;;;;;;7.86;91.63;101277.66;4951198;29;20504;-84
2022/05/30 05:06:43;;;;;;;19.05;8.82;;;;;;;7.95;91.86;101276.28;4950489;28;20540;-84
2022/05/30 05:09:18;;;;;;;18.48;9.57;;;;;;;8.04;91.91;101269.72;4938575;29;21085;-85
2022/05/30 05:11:45;;;;;;;21.52;9.63;;;;;;;8.00;91.37;101279.50;4936496;29;20053;-84
2022/05/30 05:14:11;;;;;;;21.52;9.63;;;;;;;8.11;91.33;101279.75;4952021;29;20106;-84
2022/05/30 05:16:37;;;;;;;18.85;9.50;;;;;;;8.14;90.86;101276.97;4951380;29;20027;-84
2022/05/30 05:19:03;;;;;;;16.70;9.38;;;;;;;8.19;90.48;101276.69;4949414;28;20024;-84
2022/05/30 05:21:37;;;;;;;18.10;8.85;;;;;;;8.38;90.47;101284.38;4952041;29;20110;-85
2022/05/30 05:24:05;;;;;;;21.20;9.45;;;;;;;8.44;90.11;101284.88;4950052;28;20027;-86
2022/05/30 05:26:31;;;;;;;14.95;8.85;;;;;;;8.46;89.46;101285.63;4926850;29;20082;-85
2022/05/30 05:28:57;;;;;;;20.65;9.35;;;;;;;8.54;89.76;101282.56;4950405;29;20030;-86
2022/05/30 05:31:33;;;;;;;22.65;9.73;;;;;;;8.67;89.04;101287.94;4927667;29;20062;-85
2022/05/30 05:33:59;;;;;;;18.67;9.43;;;;;;;8.79;89.04;101288.03;4934943;29;20519;-86
2022/05/30 05:36:33;;;;;;;14.45;8.63;;;;;;;8.86;88.86;101292.94;4934688;29;20267;-85
2022/05/30 05:38:59;;;;;;;17.35;8.80;;;;;;;8.88;87.94;101291.06;4925763;29;20027;-84
2022/05/30 05:41:25;;;;;;;16.77;9.13;;;;;;;8.97;88.08;101298.38;4935802;28;20488;-84
2022/05/30 05:43:54;;;;;;;14.10;7.90;;;;;;;8.98;88.08;101295.66;4944626;28;20204;-84
2022/05/30 05:46:21;;;;;;;17.45;8.07;;;;;;;9.07;88.45;101304.75;4948653;28;20033;-84
2022/05/30 05:48:47;;;;;;;17.55;7.38;;;;;;;9.20;86.25;101295.19;4943288;28;20043;-84
2022/05/30 05:51:17;;;;;;;17.48;6.78;;;;;;;9.24;85.01;101296.72;4926117;29;20058;-84
2022/05/30 05:53:43;;;;;;;12.35;5.45;;;;;;;9.38;84.00;101299.34;4945326;28;20102;-84
2022/05/30 05:56:12;;;;;;;12.32;5.63;;;;;;;9.36;83.25;101306.47;4947030;28;20472;-83
2022/05/30 05:58:37;;;;;;;17.98;6.60;;;;;;;9.54;84.57;101301.00;4942376;28;20037;-84
2022/05/30 06:01:10;;;;;;;11.43;5.38;;;;;;;9.59;84.55;101296.31;4945255;28;20031;-83
2022/05/30 06:03:36;;;;;;;11.70;5.05;;;;;;;9.49;80.79;101308.34;4935786;28;20035;-84
2022/05/30 06:06:05;;;;;;;10.02;4.93;;;;;;;9.71;81.91;101311.31;4935793;28;20027;-84
2022/05/30 06:08:31;;;;;;;10.50;4.20;;;;;;;9.71;79.56;101306.06;4948034;28;20034;-83
2022/05/30 06:11:05;;;;;;;11.10;5.07;;;;;;;9.80;81.07;101307.25;4945216;28;20035;-84
2022/05/30 06:13:57;;;;;;;11.80;5.35;;;;;;;9.88;82.77;101303.19;4945945;28;20382;-83
2022/05/30 06:16:31;;;;;;;11.98;4.97;;;;;;;9.86;80.50;101299.00;4943312;28;20038;-84
2022/05/30 06:18:59;;;;;;;11.38;4.47;;;;;;;9.95;82.01;101309.75;4935045;29;20114;-83
2022/05/30 06:21:26;;;;;;;13.13;4.03;;;;;;;10.00;79.20;101302.41;4947709;28;20028;-84
2022/05/30 06:23:53;;;;;;;11.38;4.05;;;;;;;9.98;79.76;101299.03;4953496;28;20031;-84
2022/05/30 06:26:18;;;;;;;17.88;4.40;;;;;;;10.01;79.72;101304.13;4950425;28;20033;-84
2022/05/30 06:28:44;;;;;;;11.88;3.50;;;;;;;9.92;76.52;101304.69;4952367;28;20043;-83
2022/05/30 06:31:19;;;;;;;12.55;3.90;;;;;;;9.95;77.20;101301.88;4949225;28;20054;-82
2022/05/30 06:33:44;;;;;;;11.10;3.70;;;;;;;9.98;77.84;101299.03;4946106;28;20066;-83
2022/05/30 06:36:12;;;;;;;12.23;3.92;;;;;;;10.08;77.82;101303.72;4949442;28;20032;-82
2022/05/30 06:38:39;;;;;;;8.13;3.72;;;;;;;10.07;77.54;101307.31;4954162;28;20042;-82
2022/05/30 06:41:14;;;;;;;13.02;3.55;;;;;;;10.18;76.96;101310.06;4937911;29;20031;-84
2022/05/30 06:43:39;;;;;;;11.82;3.35;;;;;;;10.26;76.40;101313.06;4947909;28;20482;-84
2022/05/30 06:46:05;;;;;;;12.90;3.70;;;;;;;10.27;78.08;101305.09;4947175;28;20082;-84
2022/05/30 06:48:30;;;;;;;12.25;3.65;;;;;;;10.35;76.88;101308.03;4940577;29;20031;-84
2022/05/30 06:50:56;;;;;;;8.48;3.25;;;;;;;10.40;75.43;101305.09;4947872;29;20031;-84
2022/05/30 06:53:21;;;;;;;10.77;3.00;;;;;;;10.48;72.90;101313.38;4946889;29;20031;-83
2022/05/30 06:55:49;;;;;;;8.93;3.00;;;;;;;10.73;74.99;101311.72;4948731;29;20378;-83
2022/05/30 06:58:18;;;;;;;13.77;5.13;;;;;;;11.06;71.98;101311.22;4919187;29;20114;-83
2022/05/30 07:00:45;;;;;;;10.02;2.28;;;;;;;11.44;70.60;101314.69;4948568;28;20090;-83
2022/05/30 07:03:12;;;;;;;6.18;2.38;;;;;;;11.84;69.52;101307.47;4935669;29;20045;-83
2022/05/30 07:05:39;;;;;;;10.77;2.85;;;;;;;12.05;67.90;101315.63;4945302;29;20115;-83
2022/05/30 07:08:05;;;;;;;7.78;2.03;;;;;;;11.88;63.48;101303.66;4951667;29;20059;-83
2022/05/30 07:10:31;;;;;;;6.45;1.48;;;;;;;12.04;63.14;101318.38;4948207;28;20039;-80
2022/05/30 07:12:57;;;;;;;7.10;1.67;;;;;;;12.13;63.04;101301.88;4933172;29;20078;-82
2022/05/30 07:15:24;;;;;;;8.55;1.65;;;;;;;12.38;62.86;101307.00;4943073;29;20055;-80
2022/05/30 07:17:50;;;;;;;10.85;2.00;;;;;;;12.62;64.78;101303.50;4953404;28;20024;-80
2022/05/30 07:20:15;;;;;;;4.68;1.70;;;;;;;12.67;61.87;101306.66;4931435;29;20031;-79
2022/05/30 07:22:41;;;;;;;7.28;1.85;;;;;;;12.66;63.27;101310.25;4930074;29;20513;-79
2022/05/30 07:25:07;;;;;;;6.85;1.80;;;;;;;12.70;62.76;101312.53;4934867;29;20452;-81
2022/05/30 07:27:32;;;;;;;6.57;1.60;;;;;;;12.61;61.72;101315.88;4953203;29;20039;-80
2022/05/30 07:29:58;;;;;;;6.15;1.50;;;;;;;12.81;59.04;101317.03;4944957;29;20118;-80
2022/05/30 07:32:23;;;;;;;9.65;1.67;;;;;;;12.84;60.52;101315.00;4953826;29;20503;-80
2022/05/30 07:34:48;;;;;;;7.40;1.80;;;;;;;13.01;62.54;101318.97;4953824;29;20035;-79
2022/05/30 07:37:14;;;;;;;6.97;1.40;;;;;;;12.80;61.38;101315.31;4954440;28;21682;-84
2022/05/30 07:39:39;;;;;;;7.07;1.45;;;;;;;12.71;59.87;101314.22;4936108;29;20035;-84
2022/05/30 07:42:06;;;;;;;6.82;1.45;;;;;;;12.62;60.05;101308.78;4943773;28;20055;-84
2022/05/30 07:44:31;;;;;;;4.90;1.25;;;;;;;12.58;59.78;101312.63;4942704;28;20118;-84
2022/05/30 07:46:57;;;;;;;6.72;1.75;;;;;;;12.61;60.89;101313.22;4951039;28;20557;-84
2022/05/30 07:49:23;;;;;;;3.55;1.17;;;;;;;12.69;60.69;101305.56;4950699;28;20058;-84
2022/05/30 07:51:50;;;;;;;7.80;1.65;;;;;;;12.79;58.39;101311.00;4935762;29;20539;-84
2022/05/30 07:54:16;;;;;;;4.95;1.77;;;;;;;12.71;56.15;101302.81;4943740;28;20452;-84
2022/05/30 07:56:41;;;;;;;4.65;1.10;;;;;;;12.78;52.36;101311.94;4951634;28;20115;-84
2022/05/30 07:59:06;;;;;;;4.38;1.20;;;;;;;13.28;53.53;101302.84;4947228;28;20150;-84
2022/05/30 08:01:33;;;;;;;4.07;1.10;;;;;;;13.65;49.52;101313.16;4932416;29;20117;-84
2022/05/30 08:03:59;;;;;;;4.28;1.30;;;;;;;14.29;49.97;101303.50;4951287;28;20380;-84
2022/05/30 08:06:26;;;;;;;3.75;1.30;;;;;;;14.89;50.08;101296.75;4931682;28;20051;-84
2022/05/30 08:08:52;;;;;;;4.32;1.33;;;;;;;15.04;49.15;101292.78;4945008;28;20067;-85
2022/05/30 08:11:22;;;;;;;8.20;1.77;;;;;;;15.43;50.24;101297.41;4953323;28;20078;-84
2022/05/30 08:13:50;;;;;;;6.28;1.63;;;;;;;15.82;49.59;101299.25;4951551;28;20040;-86
2022/05/30 08:16:21;;;;;;;5.35;1.23;;;;;;;16.13;48.95;101296.50;4931956;29;20536;-85
2022/05/30 08:18:47;;;;;;;3.35;1.27;;;;;;;15.99;47.43;101298.56;4949515;28;20031;-86
2022/05/30 08:21:14;;;;;;;3.17;1.20;;;;;;;15.60;51.17;101312.72;4950569;28;20019;-86
2022/05/30 08:23:39;;;;;;;5.60;1.23;;;;;;;15.21;50.09;101304.59;4952017;28;20456;-86
2022/05/30 08:26:05;;;;;;;4.80;1.13;;;;;;;14.88;48.97;101308.31;4946722;28;20119;-86
2022/05/30 08:28:30;;;;;;;4.57;1.15;;;;;;;14.37;51.66;101303.69;4943626;28;20027;-86
2022/05/30 08:30:56;;;;;;;5.45;1.30;;;;;;;13.77;52.16;101312.19;4947626;28;20070;-86
2022/05/30 08:33:22;;;;;;;6.07;1.27;;;;;;;13.64;54.86;101312.31;4950736;28;20106;-86
2022/05/30 08:36:01;;;;;;;5.82;1.52;;;;;;;13.47;54.53;101310.16;4934497;29;20035;-86
2022/05/30 08:38:26;;;;;;;5.07;1.25;;;;;;;13.45;54.57;101304.16;4921229;28;20027;-86
2022/05/30 08:43:39;;;;;;;6.68;1.70;;;;;;;13.43;55.33;101316.66;4957136;28;20074;-86
2022/05/30 08:46:32;;;;;;;5.30;1.52;;;;;;;13.53;57.16;101317.59;4934930;28;20374;-86
2022/05/30 08:49:05;;;;;;;5.78;1.45;;;;;;;13.58;55.51;101315.44;4931933;29;20558;-86
2022/05/30 08:51:58;;;;;;;4.03;1.25;;;;;;;13.43;55.21;101312.19;4946177;28;20027;-87
2022/05/30 08:54:35;;;;;;;6.13;2.10;;;;;;;13.59;53.97;101319.75;4950389;28;20032;-86
2022/05/30 08:57:07;;;;;;;7.57;1.73;;;;;;;14.02;52.90;101319.84;4944775;28;20358;-86
2022/05/30 08:59:53;;;;;;;5.35;1.40;;;;;;;14.57;53.85;101314.50;4947798;28;20027;-86
2022/05/30 09:02:27;;;;;;;8.27;1.75;;;;;;;15.01;52.80;101313.41;4951997;28;20046;-86
2022/05/30 09:05:03;;;;;;;5.03;1.73;;;;;;;15.48;50.03;101311.94;4947742;28;20034;-85
2022/05/30 09:07:42;;;;;;;5.43;1.50;;;;;;;16.01;50.26;101306.44;4949804;28;20094;-86
2022/05/30 09:10:20;;;;;;;4.00;1.40;;;;;;;16.21;46.42;101316.09;4937733;28;20027;-86
2022/05/30 09:12:50;;;;;;;5.05;1.33;;;;;;;16.68;46.51;101313.59;4950931;28;20032;-85
2022/05/30 09:15:34;;;;;;;6.18;1.40;;;;;;;17.16;47.07;101312.66;4946696;28;20051;-85
2022/05/30 09:18:00;;;;;;;4.47;1.33;;;;;;;17.72;44.07;101311.78;4952951;28;20421;-86
2022/05/30 09:20:27;;;;;;;4.93;1.52;;;;;;;17.43;43.94;101312.69;4942981;28;20033;-86
2022/05/30 09:22:54;;;;;;;3.58;0.98;;;;;;;17.41;45.41;101308.50;4930516;29;20034;-87
2022/05/30 09:25:57;;;;;;;5.40;1.42;;;;;;;17.44;45.44;101306.41;4952895;28;20054;-86
2022/05/30 09:28:25;;;;;;;5.75;1.40;;;;;;;17.10;44.25;101306.09;4949979;28;20034;-86
2022/05/30 09:31:19;;;;;;;3.95;1.10;;;;;;;16.91;45.97;101309.66;4940877;28;20418;-86
2022/05/30 09:33:49;;;;;;;2.45;1.10;;;;;;;16.29;43.79;101310.91;4923560;28;20039;-86
2022/05/30 09:36:18;;;;;;;4.28;1.38;;;;;;;15.84;43.48;101309.72;4952329;28;20061;-86
2022/05/30 09:38:57;;;;;;;3.80;1.38;;;;;;;15.56;47.31;101313.94;4952843;28;20035;-87
2022/05/30 09:41:26;;;;;;;3.70;1.10;;;;;;;15.33;47.83;101310.63;4953107;28;20061;-86
2022/05/30 09:44:04;;;;;;;6.85;1.30;;;;;;;15.27;46.45;101314.66;4942017;28;20037;-86
2022/05/30 09:46:40;;;;;;;3.65;1.10;;;;;;;15.13;48.09;101311.50;4955585;28;20118;-86
2022/05/30 09:49:14;;;;;;;3.78;1.42;;;;;;;15.00;47.86;101314.38;4948417;28;20031;-86
2022/05/30 09:51:47;;;;;;;4.35;1.33;;;;;;;15.10;48.32;101312.59;4943687;28;20055;-86
2022/05/30 09:54:29;;;;;;;;;;;;;;;15.34;50.92;101314.97;4951198;28;20039;-86
2022/05/30 09:57:11;;;;;;;3.60;1.25;;;;;;;15.25;49.67;101315.78;4932562;29;19965;-87
2022/05/30 09:59:43;;;;;;;8.80;1.65;;;;;;;15.16;48.70;101311.22;4943101;28;20023;-86
2022/05/30 10:02:24;;;;;;;4.45;1.35;;;;;;;15.04;49.48;101308.69;4944726;28;20526;-86
2022/05/30 10:05:00;;;;;;;4.35;1.40;;;;;;;14.97;48.88;101322.59;4942026;28;20110;-86
2022/05/30 10:07:26;;;;;;;3.50;1.20;;;;;;;14.84;48.18;101309.53;4948574;28;20079;-86
2022/05/30 10:09:52;;;;;;;3.58;1.17;;;;;;;14.84;48.42;101306.91;4949120;28;20437;-86
2022/05/30 10:12:40;;;;;;;4.57;1.20;;;;;;;14.77;48.83;101311.00;4931578;28;20066;-86
2022/05/30 10:15:23;;;;;;;8.13;1.77;;;;;;;15.16;49.53;101309.44;4944469;28;20053;-86
2022/05/30 10:17:49;;;;;;;5.70;1.50;;;;;;;15.54;45.49;101314.06;4947266;28;20366;-85
2022/05/30 10:20:32;;;;;;;4.45;1.30;;;;;;;15.82;46.50;101309.03;4929307;28;20455;-86
2022/05/30 10:29:38;;;;;;;4.15;1.30;;;;;;;17.65;45.68;101314.16;4945663;28;20095;-87
2022/05/30 10:32:21;;;;;;;3.60;1.25;;;;;;;17.92;43.72;101305.34;4929786;28;20059;-87
2022/05/30 10:35:21;;;;;;;7.78;1.50;;;;;;;18.20;41.82;101307.97;4940539;28;20050;-87
2022/05/30 10:38:03;;;;;;;5.93;1.33;;;;;;;18.05;41.52;101308.50;4943917;28;20094;-85
2022/05/30 10:40:48;;;;;;;2.25;1.08;;;;;;;17.80;41.54;101311.84;4941561;28;20087;-84
2022/05/30 10:43:43;;;;;;;2.60;0.85;;;;;;;18.16;41.08;101313.59;4939890;28;20106;-85
2022/05/30 10:46:15;;;;;;;3.40;0.88;;;;;;;18.18;36.54;101310.78;4943160;28;20486;-85
2022/05/30 10:48:49;;;;;;;3.70;1.08;;;;;;;18.58;36.14;101312.13;4938594;28;20031;-85
2022/05/30 10:51:15;;;;;;;2.13;0.80;;;;;;;18.78;36.71;101308.31;4940775;28;20038;-85
2022/05/30 10:54:11;;;;;;;2.42;0.90;;;;;;;19.00;40.77;101312.31;4939928;28;20023;-85
2022/05/30 10:56:45;;;;;;;4.32;1.30;;;;;;;18.82;37.96;101311.53;4941418;28;20164;-85
2022/05/30 10:59:22;;;;;;;4.75;1.20;;;;;;;18.39;38.80;101313.97;4924756;29;20061;-85
2022/05/30 11:01:52;;;;;;;3.50;0.90;;;;;;;18.20;38.73;101313.28;4925315;29;20436;-85
2022/05/30 11:04:38;;;;;;;3.90;0.90;;;;;;;17.77;39.90;101322.81;4940444;28;20046;-84
2022/05/30 11:07:22;;;;;;;4.68;1.02;;;;;;;17.57;41.27;101322.00;4940043;28;20546;-85
2022/05/30 11:09:59;;;;;;;7.68;1.70;;;;;;;17.13;43.44;101318.25;4930925;29;20425;-85
2022/05/30 11:12:38;;;;;;;7.75;1.70;;;;;;;16.89;44.63;101321.41;4941681;28;20031;-85
2022/05/30 11:15:29;;;;;;;8.43;1.48;;;;;;;16.67;46.23;101321.69;4924957;29;20031;-85
2022/05/30 11:18:27;;;;;;;10.07;1.90;;;;;;;16.42;46.43;101317.78;4938225;28;20054;-79
2022/05/30 11:21:18;;;;;;;5.13;1.60;;;;;;;16.13;46.25;101318.59;4930217;28;20090;-79
2022/05/30 11:23:43;;;;;;;7.40;1.90;;;;;;;15.90;45.79;101319.78;4945314;28;20035;-79
2022/05/30 11:26:46;;;;;;;5.80;1.65;;;;;;;15.97;47.64;101326.22;4935701;28;20375;-79
2022/05/30 11:29:27;;;;;;;5.38;1.60;;;;;;;15.86;46.52;101316.56;4945825;28;20408;-79
2022/05/30 11:32:00;;;;;;;5.15;1.75;;;;;;;15.85;46.64;101327.31;4945659;28;20039;-79
2022/05/30 11:34:48;;;;;;;8.93;1.88;;;;;;;15.92;47.02;101334.59;4943697;28;20027;-80
2022/05/30 11:37:33;;;;;;;5.68;1.50;;;;;;;15.80;46.56;101326.91;4941028;28;20020;-84
2022/05/30 11:39:58;;;;;;;5.63;1.52;;;;;;;15.68;45.86;101327.97;4946664;28;20386;-84
2022/05/30 11:42:23;;;;;;;8.02;2.05;;;;;;;15.69;46.21;101330.50;4944967;28;20050;-84
2022/05/30 11:45:02;;;;;;;7.47;2.08;;;;;;;15.66;45.77;101331.63;4930317;29;20426;-84
2022/05/30 11:47:56;;;;;;;5.70;1.95;;;;;;;15.76;47.02;101326.34;4929528;29;20036;-84
2022/05/30 11:50:33;;;;;;;5.40;1.50;;;;;;;15.86;44.44;101318.38;4944092;28;20110;-85
2022/05/30 11:53:27;;;;;;;5.63;1.63;;;;;;;15.98;45.51;101325.25;4946183;29;20126;-85
2022/05/30 11:56:31;;;;;;;5.03;1.73;;;;;;;16.11;44.97;101322.38;4951095;28;20027;-84